createdAt,value
2023-04-14T00:01:18.368Z,57.53
2023-04-14T00:03:47.898Z,56.20
2023-04-14T00:06:17.525Z,58.08
2023-04-14T00:08:48.394Z,56.15
2023-04-14T00:11:18.071Z,46.40
2023-04-14T00:13:47.528Z,49.42
2023-04-14T00:16:16.946Z,51.67
2023-04-14T00:18:47.145Z,52.33
2023-04-14T00:21:17.028Z,57.63
2023-04-14T00:23:46.808Z,57.65
2023-04-14T00:26:16.673Z,56.72
2023-04-14T00:28:49.025Z,59.05
2023-04-14T00:31:18.531Z,62.03
2023-04-14T00:33:48.145Z,63.47
2023-04-14T00:36:18.104Z,60.65
2023-04-14T00:38:47.919Z,62.78
2023-04-14T00:41:17.408Z,63.85
2023-04-14T00:43:47.208Z,68.97
2023-04-14T00:46:19.173Z,68.25
2023-04-14T00:48:49.120Z,68.60
2023-04-14T00:51:19.601Z,67.18
2023-04-14T00:53:49.772Z,69.43
2023-04-14T00:56:20.349Z,68.18
2023-04-14T00:58:49.777Z,67.03
2023-04-14T01:01:22.034Z,71.40
2023-04-14T01:03:51.870Z,68.00
2023-04-14T01:06:21.544Z,67.47
2023-04-14T01:08:52.505Z,67.32
2023-04-14T01:11:31.262Z,68.35
2023-04-14T01:14:11.748Z,63.22
2023-04-14T01:16:43.727Z,60.83
2023-04-14T01:19:47.869Z,60.35
2023-04-14T01:22:19.035Z,60.83
2023-04-14T01:25:04.075Z,68.53
2023-04-14T01:27:33.537Z,76.53
2023-04-14T01:30:21.093Z,75.30
2023-04-14T01:32:51.849Z,81.38
2023-04-14T01:35:29.999Z,78.32
2023-04-14T01:38:09.073Z,79.78
2023-04-14T01:40:39.308Z,68.85
2023-04-14T01:45:42.961Z,70.88
2023-04-14T01:48:13.486Z,74.07
2023-04-14T01:50:43.952Z,70.47
2023-04-14T01:53:15.118Z,68.82
2023-04-14T01:55:46.398Z,69.35
2023-04-14T01:58:17.518Z,74.30
2023-04-14T02:00:47.868Z,78.45
2023-04-14T02:03:19.013Z,73.57
2023-04-14T02:05:49.773Z,79.22
2023-04-14T02:08:20.314Z,97.32
2023-04-14T02:10:50.753Z,78.40
2023-04-14T02:13:22.281Z,72.80
2023-04-14T02:15:53.460Z,72.95
2023-04-14T02:18:25.318Z,80.15
2023-04-14T02:20:55.549Z,83.00
2023-04-14T02:23:25.679Z,91.35
2023-04-14T02:25:59.711Z,95.43
2023-04-14T02:28:31.649Z,86.20
2023-04-14T02:31:01.669Z,102.95
2023-04-14T02:36:14.242Z,96.57
2023-04-14T02:38:56.969Z,83.85
2023-04-14T02:41:31.859Z,82.00
2023-04-14T02:44:08.434Z,86.18
2023-04-14T02:46:42.066Z,84.30
2023-04-14T02:49:13.886Z,89.50
2023-04-14T02:51:44.932Z,89.57
2023-04-14T02:54:15.838Z,84.93
2023-04-14T02:56:45.346Z,90.43
2023-04-14T02:59:15.817Z,95.45
2023-04-14T03:01:49.161Z,96.63
2023-04-14T03:04:19.401Z,94.80
2023-04-14T03:06:49.094Z,91.63
2023-04-14T03:09:19.559Z,95.05
2023-04-14T03:11:49.569Z,90.30
2023-04-14T03:14:20.903Z,97.43
2023-04-14T03:16:53.713Z,91.75
2023-04-14T03:19:24.670Z,86.78
2023-04-14T03:21:56.776Z,89.60
2023-04-14T03:24:26.795Z,90.03
2023-04-14T03:26:59.467Z,87.45
2023-04-14T03:29:30.191Z,80.90
2023-04-14T03:32:01.965Z,83.05
2023-04-14T03:34:33.744Z,79.97
2023-04-14T03:37:03.883Z,80.25
2023-04-14T03:39:36.033Z,81.57
2023-04-14T03:42:05.644Z,84.30
2023-04-14T03:44:37.265Z,88.95
2023-04-14T03:47:10.002Z,89.18
2023-04-14T03:49:41.071Z,86.18
2023-04-14T03:52:13.439Z,93.15
2023-04-14T03:54:44.726Z,94.03
2023-04-14T03:57:19.499Z,85.82
2023-04-14T03:59:52.476Z,90.72
2023-04-14T04:02:24.089Z,84.05
2023-04-14T04:04:55.201Z,96.43
2023-04-14T04:07:25.464Z,90.15
2023-04-14T04:09:56.081Z,93.15
2023-04-14T04:12:27.790Z,90.00
2023-04-14T04:14:57.151Z,91.10
2023-04-14T04:17:27.762Z,89.32
2023-04-14T04:19:57.834Z,90.05
2023-04-14T04:22:29.420Z,86.13
2023-04-14T04:25:01.224Z,84.50
2023-04-14T04:27:31.327Z,82.55
2023-04-14T04:30:01.369Z,87.20
2023-04-14T04:32:33.012Z,85.05
2023-04-14T04:35:03.633Z,83.90
2023-04-14T04:37:35.081Z,86.90
2023-04-14T04:40:05.405Z,87.05
2023-04-14T04:42:35.088Z,86.75
2023-04-14T04:47:34.051Z,86.38
2023-04-14T04:52:32.805Z,86.70
2023-04-14T04:55:02.862Z,86.28
2023-04-14T04:57:32.562Z,87.38
2023-04-14T05:02:31.920Z,81.00
2023-04-14T05:05:01.771Z,76.70
2023-04-14T05:10:01.850Z,74.10
2023-04-14T05:12:31.064Z,72.47
2023-04-14T05:15:01.961Z,77.45
2023-04-14T05:17:32.019Z,70.50
2023-04-14T05:20:01.862Z,69.78
2023-04-14T05:22:31.347Z,70.30
2023-04-14T05:25:01.068Z,70.70
2023-04-14T05:27:30.650Z,74.70
2023-04-14T05:30:00.319Z,74.72
2023-04-14T05:34:59.400Z,70.85
2023-04-14T05:37:35.676Z,72.07
2023-04-14T05:40:06.140Z,71.03
2023-04-14T05:42:35.785Z,68.93
2023-04-14T05:47:35.216Z,68.90
2023-04-14T05:52:34.896Z,71.18
2023-04-14T05:55:04.533Z,69.07
2023-04-14T06:00:03.843Z,65.43
2023-04-14T06:02:33.373Z,66.10
2023-04-14T06:07:33.378Z,65.70
2023-04-14T06:10:03.616Z,67.70
2023-04-14T06:12:33.551Z,67.60
2023-04-14T06:15:03.260Z,68.00
2023-04-14T06:17:33.867Z,67.95
2023-04-14T06:20:03.801Z,67.18
2023-04-14T06:22:34.100Z,70.28
2023-04-14T06:25:03.879Z,63.53
2023-04-14T06:27:33.313Z,64.90
2023-04-14T06:30:03.025Z,67.07
2023-04-14T06:32:33.219Z,63.70
2023-04-14T06:35:03.023Z,67.50
2023-04-14T06:40:01.833Z,66.18
2023-04-14T06:42:31.116Z,54.58
2023-04-14T06:45:00.689Z,56.40
2023-04-14T06:50:06.948Z,57.42
2023-04-14T06:52:36.416Z,62.95
2023-04-14T06:55:06.321Z,55.00
2023-04-14T06:57:36.260Z,53.28
2023-04-14T07:00:09.021Z,57.25
2023-04-14T07:02:39.452Z,54.38
2023-04-14T07:05:10.398Z,58.55
2023-04-14T08:34:36.227Z,50.25
2023-04-14T08:37:06.149Z,55.90
2023-04-14T08:39:35.660Z,58.17
2023-04-14T08:42:07.020Z,60.72
2023-04-14T08:44:36.592Z,61.13
2023-04-14T08:49:44.438Z,57.78
2023-04-14T08:52:15.608Z,56.88
2023-04-14T08:54:46.185Z,55.42
2023-04-14T08:57:17.338Z,51.67
2023-04-14T08:59:47.398Z,52.28
2023-04-14T09:02:17.180Z,54.78
2023-04-14T09:04:48.388Z,58.38
2023-04-14T09:07:18.766Z,59.45
2023-04-14T09:09:48.807Z,62.35
2023-04-14T09:12:22.148Z,63.75
2023-04-14T09:14:53.152Z,60.45
2023-04-14T09:17:23.908Z,63.78
2023-04-14T09:20:35.924Z,61.83
2023-04-14T09:25:13.375Z,65.07
2023-04-14T09:27:42.917Z,65.85
2023-04-14T09:30:12.697Z,61.33
2023-04-14T09:32:43.218Z,65.90
2023-04-14T09:35:16.348Z,65.35
2023-04-14T09:37:50.642Z,67.05
2023-04-14T09:40:31.036Z,72.72
2023-04-14T09:43:00.829Z,77.00
2023-04-14T09:45:46.700Z,69.30
2023-04-14T09:48:16.716Z,71.47
2023-04-14T09:51:01.685Z,70.80
2023-04-14T09:53:34.086Z,73.57
2023-04-14T09:56:05.180Z,70.03
2023-04-14T09:58:39.197Z,68.68
2023-04-14T10:01:15.779Z,69.72
2023-04-14T10:03:50.019Z,66.30
2023-04-14T10:06:22.485Z,69.50
2023-04-14T10:08:58.066Z,68.97
2023-04-14T10:11:31.836Z,68.32
2023-04-14T10:14:04.033Z,69.80
2023-04-14T10:16:34.316Z,66.95
2023-04-14T10:19:05.321Z,66.63
2023-04-14T10:21:35.893Z,63.92
2023-04-14T10:24:05.576Z,62.78
2023-04-14T10:29:05.872Z,65.72
2023-04-14T10:31:40.929Z,64.95
2023-04-14T10:34:14.642Z,67.57
2023-04-14T10:36:45.445Z,70.47
2023-04-14T10:39:15.689Z,73.10
2023-04-14T10:41:50.283Z,73.22
2023-04-14T10:44:26.746Z,75.32
2023-04-14T10:46:57.793Z,74.05
2023-04-14T10:49:44.492Z,71.88
2023-04-14T10:52:18.835Z,70.38
2023-04-14T10:54:53.735Z,73.03
2023-04-14T10:57:27.163Z,74.13
2023-04-14T10:59:58.521Z,75.03
2023-04-14T11:02:37.699Z,74.38
2023-04-14T11:05:16.585Z,76.57
2023-04-14T11:07:50.068Z,84.97
2023-04-14T11:10:20.323Z,80.88
2023-04-14T11:12:53.022Z,83.00
2023-04-14T11:15:23.376Z,85.63
2023-04-14T11:17:54.927Z,85.32
2023-04-14T11:20:25.040Z,86.55
2023-04-14T11:22:56.571Z,86.78
2023-04-14T11:25:26.576Z,89.68
2023-04-14T11:28:00.618Z,89.90
2023-04-14T11:30:30.414Z,85.57
2023-04-14T11:33:01.515Z,89.63
2023-04-14T11:35:31.628Z,90.18
2023-04-14T11:38:03.928Z,89.65
2023-04-14T11:40:43.358Z,91.38
2023-04-14T11:43:13.916Z,88.55
2023-04-14T11:48:15.561Z,90.60
2023-04-14T11:50:47.711Z,94.60
2023-04-14T11:53:22.153Z,94.40
2023-04-14T11:55:52.797Z,94.88
2023-04-14T11:58:25.842Z,94.22
2023-04-14T12:00:56.578Z,91.60
2023-04-14T12:03:31.022Z,92.50
2023-04-14T12:06:05.124Z,90.38
2023-04-14T12:08:36.042Z,91.65
2023-04-14T12:11:20.559Z,95.20
2023-04-14T12:13:51.110Z,89.90
2023-04-14T12:16:20.721Z,90.78
2023-04-14T12:18:52.112Z,90.30
2023-04-14T12:21:22.944Z,91.35
2023-04-14T12:23:52.441Z,91.80
2023-04-14T12:26:22.745Z,86.57
2023-04-14T12:28:59.516Z,88.22
2023-04-14T12:31:32.738Z,89.82
2023-04-14T12:34:04.020Z,90.32
2023-04-14T12:36:48.748Z,93.57
2023-04-14T12:39:20.694Z,88.80
2023-04-14T12:41:50.822Z,92.03
2023-04-14T12:44:26.436Z,91.75
2023-04-14T12:46:56.688Z,95.97
2023-04-14T12:49:34.992Z,94.25
2023-04-14T12:52:05.415Z,96.65
2023-04-14T12:54:54.444Z,95.38
2023-04-14T12:57:23.947Z,93.55
2023-04-14T12:59:54.182Z,92.43
2023-04-14T13:02:27.459Z,95.10
2023-04-14T13:04:57.465Z,102.38
2023-04-14T13:07:26.863Z,99.38
2023-04-14T13:09:57.017Z,98.10
2023-04-14T13:12:27.135Z,103.70
2023-04-14T13:14:57.342Z,105.03
2023-04-14T13:17:27.330Z,101.75
2023-04-14T13:19:58.480Z,103.05
2023-04-14T13:22:29.196Z,104.03
2023-04-14T13:25:01.726Z,101.93
2023-04-14T13:27:31.192Z,102.50
2023-04-14T13:30:00.590Z,108.45
2023-04-14T13:32:30.409Z,106.38
2023-04-14T13:37:29.654Z,106.05
2023-04-14T13:39:59.360Z,113.38
2023-04-14T13:42:28.768Z,106.18
2023-04-14T13:44:58.363Z,109.75
2023-04-14T13:47:29.001Z,107.15
2023-04-14T13:49:59.133Z,112.28
2023-04-14T13:52:29.004Z,111.10
2023-04-14T13:54:58.711Z,111.10
2023-04-14T13:57:28.273Z,107.03
2023-04-14T13:59:57.995Z,113.95
2023-04-14T14:04:59.338Z,115.88
2023-04-14T14:07:29.184Z,121.18
2023-04-14T14:12:28.372Z,125.93
2023-04-14T14:14:58.394Z,122.75
2023-04-14T14:19:57.193Z,132.80
2023-04-14T14:22:26.604Z,131.70
2023-04-14T14:25:10.611Z,136.45
2023-04-14T14:27:40.792Z,132.25
2023-04-14T14:30:10.405Z,126.55
2023-04-14T14:32:39.789Z,131.15
2023-04-14T14:35:10.391Z,132.55
2023-04-14T14:37:41.175Z,129.90
2023-04-14T14:40:11.265Z,131.75
2023-04-14T14:42:41.271Z,131.70
2023-04-14T14:47:40.522Z,127.50
2023-04-14T14:50:10.896Z,122.78
2023-04-14T14:52:40.198Z,130.85
2023-04-14T14:55:09.883Z,128.10
2023-04-14T14:57:40.646Z,133.93
2023-04-14T15:00:10.347Z,130.90
2023-04-14T15:02:40.437Z,133.88
2023-04-14T15:05:10.471Z,129.95
2023-04-14T15:10:09.207Z,133.88
2023-04-14T15:15:09.295Z,122.43
2023-04-14T15:17:39.507Z,123.07
2023-04-14T15:20:10.992Z,123.18
2023-04-14T15:22:41.118Z,119.03
2023-04-14T15:25:10.892Z,118.18
2023-04-14T15:27:40.871Z,125.07
2023-04-14T15:32:40.468Z,117.35
2023-04-14T15:35:10.515Z,125.13
2023-04-14T15:40:13.677Z,129.50
2023-04-14T15:42:43.812Z,127.43
2023-04-14T15:45:14.419Z,130.55
2023-04-14T15:47:43.725Z,127.47
2023-04-14T15:50:18.765Z,129.57
2023-04-14T15:52:48.616Z,127.55
2023-04-14T15:55:18.353Z,123.53
2023-04-14T15:57:49.244Z,126.75
2023-04-14T16:00:24.285Z,122.28
2023-04-14T16:02:54.311Z,122.05
2023-04-14T16:05:24.319Z,126.22
2023-04-14T16:10:23.689Z,122.72
2023-04-14T16:12:53.749Z,123.00
2023-04-14T16:17:53.953Z,123.95
2023-04-14T16:20:24.018Z,126.20
2023-04-14T16:25:24.020Z,122.93
2023-04-14T16:27:53.718Z,121.72
2023-04-14T16:30:23.364Z,126.32
2023-04-14T16:32:52.903Z,129.05
2023-04-14T16:35:23.019Z,127.90
2023-04-14T16:37:54.528Z,126.05
2023-04-14T16:40:24.301Z,124.95
2023-04-14T16:42:54.105Z,131.02
2023-04-14T16:45:23.598Z,126.28
2023-04-14T16:47:53.491Z,133.27
2023-04-14T16:50:23.900Z,130.15
2023-04-14T16:52:53.938Z,129.15
2023-04-14T16:57:54.337Z,122.75
2023-04-14T17:00:23.768Z,124.68
2023-04-14T17:02:53.499Z,124.57
2023-04-14T17:05:23.336Z,121.07
2023-04-14T17:07:56.135Z,121.32
2023-04-14T17:10:27.876Z,120.50
2023-04-14T17:12:59.278Z,117.22
2023-04-14T17:15:29.379Z,123.93
2023-04-14T17:20:27.800Z,134.20
2023-04-14T17:22:59.298Z,132.73
2023-04-14T17:25:29.229Z,138.35
2023-04-14T17:27:58.980Z,132.02
2023-04-14T17:30:31.138Z,129.60
2023-04-14T17:33:02.526Z,132.88
2023-04-14T17:35:32.762Z,135.93
2023-04-14T17:40:32.008Z,138.53
2023-04-14T17:43:01.808Z,140.68
2023-04-14T17:45:32.327Z,133.98
2023-04-14T17:48:01.829Z,139.90
2023-04-14T17:50:32.201Z,140.70
2023-04-14T17:53:01.476Z,142.68
2023-04-14T17:55:31.276Z,136.67
2023-04-14T17:58:02.791Z,138.60
2023-04-14T18:00:32.026Z,138.75
2023-04-14T18:03:01.874Z,138.30
2023-04-14T18:05:31.715Z,138.02
2023-04-14T18:08:01.725Z,143.23
2023-04-14T18:10:31.977Z,144.45
2023-04-14T18:15:31.830Z,137.68
2023-04-14T18:18:01.615Z,131.43
2023-04-14T18:20:32.125Z,136.15
2023-04-14T18:23:03.709Z,132.50
2023-04-14T18:28:09.282Z,132.27
2023-04-14T18:30:40.857Z,128.85
2023-04-14T18:33:10.804Z,131.23
2023-04-14T18:35:41.075Z,131.15
2023-04-14T18:38:11.860Z,126.30
2023-04-14T18:40:42.247Z,126.68
2023-04-14T18:43:12.660Z,129.82
2023-04-14T18:45:42.685Z,128.60
2023-04-14T18:48:12.229Z,127.25
2023-04-14T18:50:43.358Z,132.25
2023-04-14T18:53:13.191Z,132.60
2023-04-14T18:55:45.636Z,126.18
2023-04-14T18:58:16.351Z,132.75
2023-04-14T19:00:48.173Z,132.55
2023-04-14T19:03:18.680Z,129.70
2023-04-14T19:05:48.699Z,128.60
2023-04-14T19:08:18.793Z,126.13
2023-04-14T19:13:19.427Z,128.50
2023-04-14T19:15:49.074Z,134.30
2023-04-14T19:18:19.660Z,136.88
2023-04-14T19:20:51.581Z,139.88
2023-04-14T19:23:21.165Z,139.68
2023-04-14T19:25:50.630Z,140.23
2023-04-14T19:28:20.370Z,140.10
2023-04-14T19:30:49.793Z,139.02
2023-04-14T19:33:19.607Z,151.95
2023-04-14T19:35:51.085Z,154.35
2023-04-14T19:38:21.369Z,160.90
2023-04-14T19:40:51.577Z,156.23
2023-04-14T19:43:21.504Z,146.35
2023-04-14T19:45:59.492Z,142.80
2023-04-14T19:48:29.654Z,138.20
2023-04-14T19:51:01.302Z,140.00
2023-04-14T19:53:32.649Z,138.25
2023-04-14T19:56:03.668Z,143.77
2023-04-14T19:58:34.772Z,146.10
2023-04-14T20:01:04.222Z,146.60
2023-04-14T20:03:34.584Z,138.43
2023-04-14T20:06:05.445Z,147.05
2023-04-14T20:08:34.712Z,148.15
2023-04-14T20:11:08.554Z,144.07
2023-04-14T20:13:40.032Z,145.68
2023-04-14T20:16:11.292Z,140.95
2023-04-14T20:18:41.944Z,144.85
2023-04-14T20:21:12.340Z,147.20
2023-04-14T20:23:42.851Z,143.82
2023-04-14T20:26:13.500Z,145.77
2023-04-14T20:28:44.251Z,146.40
2023-04-14T20:31:15.910Z,147.93
2023-04-14T20:33:45.776Z,149.82
2023-04-14T20:36:16.683Z,153.05
2023-04-14T20:38:46.513Z,147.18
2023-04-14T20:41:16.333Z,147.60
2023-04-14T20:43:46.104Z,146.95
2023-04-14T20:46:16.164Z,153.43
2023-04-14T20:48:46.614Z,151.70
2023-04-14T20:51:18.144Z,141.15
2023-04-14T20:53:48.356Z,148.90
2023-04-14T20:58:47.639Z,145.13
2023-04-14T21:01:17.515Z,151.43
2023-04-14T21:03:47.097Z,147.60
2023-04-14T21:06:17.811Z,146.45
2023-04-14T21:08:48.064Z,146.38
2023-04-14T21:15:30.885Z,144.82
2023-04-14T21:16:41.462Z,149.35
2023-04-14T21:19:11.893Z,144.07
2023-04-14T21:21:41.908Z,151.20
2023-04-14T21:24:12.246Z,142.43
2023-04-14T21:29:10.875Z,146.93
2023-04-14T21:31:43.805Z,153.50
2023-04-14T21:34:15.386Z,148.13
2023-04-14T21:36:46.444Z,147.07
2023-04-14T21:39:16.587Z,148.60
2023-04-14T21:44:23.156Z,141.57
2023-04-14T21:46:53.104Z,141.95
2023-04-14T21:49:23.315Z,149.25
2023-04-14T21:54:25.217Z,141.70
2023-04-14T21:56:55.686Z,144.75
2023-04-14T21:59:25.241Z,143.82
2023-04-14T22:01:54.812Z,146.85
2023-04-14T22:04:35.340Z,150.73
2023-04-14T22:07:07.264Z,151.60
2023-04-14T22:09:37.506Z,150.70
2023-04-14T22:14:38.911Z,144.20
2023-04-14T22:17:08.660Z,144.98
2023-04-14T22:19:38.235Z,149.32
2023-04-14T22:22:08.389Z,152.88
2023-04-14T22:27:07.298Z,142.25
2023-04-14T22:29:36.991Z,144.98
2023-04-14T22:32:06.978Z,142.05
2023-04-14T22:34:38.438Z,146.50
2023-04-14T22:37:09.187Z,145.85
2023-04-14T22:39:38.432Z,144.35
2023-04-14T22:42:08.564Z,144.20
2023-04-14T22:49:37.541Z,138.27
2023-04-14T22:52:07.274Z,143.77
2023-04-14T22:54:37.036Z,137.35
2023-04-14T22:57:06.395Z,144.32
2023-04-14T22:59:36.809Z,134.73
2023-04-14T23:02:09.252Z,134.95
2023-04-14T23:04:39.455Z,142.07
2023-04-14T23:09:38.211Z,143.52
2023-04-14T23:12:08.043Z,147.43
2023-04-14T23:14:38.217Z,146.00
2023-04-14T23:19:37.970Z,136.48
2023-04-14T23:24:36.658Z,139.60
2023-04-14T23:27:06.326Z,141.43
2023-04-14T23:29:35.767Z,138.38
2023-04-14T23:32:05.529Z,137.32
2023-04-14T23:34:35.298Z,146.68
2023-04-14T23:37:05.732Z,139.25
2023-04-14T23:39:35.394Z,145.48
2023-04-14T23:42:04.999Z,143.20
2023-04-14T23:44:34.775Z,151.25
2023-04-14T23:47:06.370Z,150.40
2023-04-14T23:49:38.617Z,139.80
2023-04-14T23:54:38.167Z,140.80
2023-04-14T23:57:09.960Z,144.30
2023-04-14T23:59:40.078Z,141.85
